sensor_id;sensor_type;location;lat;lon;timestamp;P1;durP1;ratioP1;P2;durP2;ratioP2
53646;SDS011;39550;52.230;5.194;2022-08-06T00:00:45;4.25;;;1.90;;
53646;SDS011;39550;52.230;5.194;2022-08-06T00:03:10;4.05;;;2.00;;
53646;SDS011;39550;52.230;5.194;2022-08-06T00:05:36;5.15;;;2.33;;
53646;SDS011;39550;52.230;5.194;2022-08-06T00:08:01;4.03;;;2.03;;
53646;SDS011;39550;52.230;5.194;2022-08-06T00:10:26;4.00;;;1.90;;
53646;SDS011;39550;52.230;5.194;2022-08-06T00:12:52;3.63;;;2.00;;
53646;SDS011;39550;52.230;5.194;2022-08-06T00:15:18;4.95;;;2.03;;
53646;SDS011;39550;52.230;5.194;2022-08-06T00:17:43;4.20;;;2.08;;
53646;SDS011;39550;52.230;5.194;2022-08-06T00:20:13;4.32;;;2.10;;
53646;SDS011;39550;52.230;5.194;2022-08-06T00:22:40;5.15;;;2.38;;
53646;SDS011;39550;52.230;5.194;2022-08-06T00:25:06;4.57;;;2.03;;
53646;SDS011;39550;52.230;5.194;2022-08-06T00:27:37;4.55;;;2.03;;
53646;SDS011;39550;52.230;5.194;2022-08-06T00:30:04;4.88;;;2.05;;
53646;SDS011;39550;52.230;5.194;2022-08-06T00:32:30;4.82;;;2.00;;
53646;SDS011;39550;52.230;5.194;2022-08-06T00:34:56;5.15;;;2.05;;
53646;SDS011;39550;52.230;5.194;2022-08-06T00:37:21;6.93;;;2.38;;
53646;SDS011;39550;52.230;5.194;2022-08-06T00:39:46;5.70;;;2.20;;
53646;SDS011;39550;52.230;5.194;2022-08-06T00:42:12;6.53;;;2.15;;
53646;SDS011;39550;52.230;5.194;2022-08-06T00:44:37;7.00;;;2.38;;
53646;SDS011;39550;52.230;5.194;2022-08-06T00:47:03;7.07;;;2.58;;
53646;SDS011;39550;52.230;5.194;2022-08-06T00:49:28;5.07;;;2.47;;
53646;SDS011;39550;52.230;5.194;2022-08-06T00:51:54;5.88;;;2.30;;
53646;SDS011;39550;52.230;5.194;2022-08-06T00:54:19;5.20;;;2.63;;
53646;SDS011;39550;52.230;5.194;2022-08-06T00:56:45;4.18;;;2.38;;
53646;SDS011;39550;52.230;5.194;2022-08-06T00:59:10;3.83;;;2.00;;
53646;SDS011;39550;52.230;5.194;2022-08-06T01:01:36;5.60;;;2.20;;
53646;SDS011;39550;52.230;5.194;2022-08-06T01:04:01;5.32;;;2.00;;
53646;SDS011;39550;52.230;5.194;2022-08-06T01:06:27;5.25;;;2.50;;
53646;SDS011;39550;52.230;5.194;2022-08-06T01:08:52;4.32;;;2.15;;
53646;SDS011;39550;52.230;5.194;2022-08-06T01:11:18;4.57;;;2.00;;
53646;SDS011;39550;52.230;5.194;2022-08-06T01:13:43;5.22;;;2.20;;
53646;SDS011;39550;52.230;5.194;2022-08-06T01:18:44;5.63;;;2.33;;
53646;SDS011;39550;52.230;5.194;2022-08-06T01:21:23;4.03;;;1.98;;
53646;SDS011;39550;52.230;5.194;2022-08-06T01:27:23;4.32;;;2.03;;
53646;SDS011;39550;52.230;5.194;2022-08-06T01:30:01;5.45;;;2.40;;
53646;SDS011;39550;52.230;5.194;2022-08-06T01:32:32;5.25;;;2.33;;
53646;SDS011;39550;52.230;5.194;2022-08-06T01:35:21;3.83;;;1.92;;
53646;SDS011;39550;52.230;5.194;2022-08-06T01:37:59;5.40;;;2.10;;
53646;SDS011;39550;52.230;5.194;2022-08-06T01:40:32;4.60;;;2.13;;
53646;SDS011;39550;52.230;5.194;2022-08-06T01:43:01;3.58;;;2.05;;
53646;SDS011;39550;52.230;5.194;2022-08-06T01:45:32;3.88;;;2.08;;
53646;SDS011;39550;52.230;5.194;2022-08-06T01:48:01;4.03;;;1.90;;
53646;SDS011;39550;52.230;5.194;2022-08-06T01:50:29;3.45;;;2.00;;
53646;SDS011;39550;52.230;5.194;2022-08-06T01:52:58;5.07;;;2.20;;
53646;SDS011;39550;52.230;5.194;2022-08-06T01:55:27;3.90;;;2.10;;
53646;SDS011;39550;52.230;5.194;2022-08-06T01:57:55;4.18;;;2.20;;
53646;SDS011;39550;52.230;5.194;2022-08-06T02:00:24;4.18;;;2.00;;
53646;SDS011;39550;52.230;5.194;2022-08-06T02:02:50;4.43;;;2.08;;
53646;SDS011;39550;52.230;5.194;2022-08-06T02:05:18;3.40;;;1.90;;
53646;SDS011;39550;52.230;5.194;2022-08-06T02:07:46;4.63;;;2.30;;
53646;SDS011;39550;52.230;5.194;2022-08-06T02:10:15;4.45;;;2.00;;
53646;SDS011;39550;52.230;5.194;2022-08-06T02:12:42;3.97;;;2.13;;
53646;SDS011;39550;52.230;5.194;2022-08-06T02:15:31;5.53;;;2.03;;
53646;SDS011;39550;52.230;5.194;2022-08-06T02:17:58;4.13;;;1.93;;
53646;SDS011;39550;52.230;5.194;2022-08-06T02:20:37;3.95;;;2.00;;
53646;SDS011;39550;52.230;5.194;2022-08-06T02:23:06;4.25;;;1.83;;
53646;SDS011;39550;52.230;5.194;2022-08-06T02:25:34;4.82;;;2.05;;
53646;SDS011;39550;52.230;5.194;2022-08-06T02:28:04;4.28;;;2.00;;
53646;SDS011;39550;52.230;5.194;2022-08-06T02:30:34;5.93;;;2.20;;
53646;SDS011;39550;52.230;5.194;2022-08-06T02:33:04;3.80;;;2.00;;
53646;SDS011;39550;52.230;5.194;2022-08-06T02:35:30;3.92;;;2.08;;
53646;SDS011;39550;52.230;5.194;2022-08-06T02:38:22;4.15;;;2.10;;
53646;SDS011;39550;52.230;5.194;2022-08-06T02:40:50;4.10;;;2.28;;
53646;SDS011;39550;52.230;5.194;2022-08-06T02:43:22;3.58;;;2.00;;
53646;SDS011;39550;52.230;5.194;2022-08-06T02:45:58;5.15;;;2.20;;
53646;SDS011;39550;52.230;5.194;2022-08-06T02:48:33;4.40;;;2.15;;
53646;SDS011;39550;52.230;5.194;2022-08-06T02:51:05;3.65;;;2.15;;
53646;SDS011;39550;52.230;5.194;2022-08-06T02:53:39;4.07;;;2.13;;
53646;SDS011;39550;52.230;5.194;2022-08-06T02:56:10;4.32;;;2.10;;
53646;SDS011;39550;52.230;5.194;2022-08-06T02:58:37;4.20;;;2.20;;
53646;SDS011;39550;52.230;5.194;2022-08-06T03:01:09;4.03;;;2.17;;
53646;SDS011;39550;52.230;5.194;2022-08-06T03:03:40;4.57;;;2.10;;
53646;SDS011;39550;52.230;5.194;2022-08-06T03:06:09;3.58;;;1.95;;
53646;SDS011;39550;52.230;5.194;2022-08-06T03:08:38;4.10;;;1.90;;
53646;SDS011;39550;52.230;5.194;2022-08-06T03:11:04;6.13;;;2.35;;
53646;SDS011;39550;52.230;5.194;2022-08-06T03:13:31;3.67;;;1.90;;
53646;SDS011;39550;52.230;5.194;2022-08-06T03:15:58;4.40;;;2.05;;
53646;SDS011;39550;52.230;5.194;2022-08-06T03:18:25;4.03;;;2.00;;
53646;SDS011;39550;52.230;5.194;2022-08-06T03:20:52;4.25;;;2.10;;
53646;SDS011;39550;52.230;5.194;2022-08-06T03:23:18;3.67;;;2.00;;
53646;SDS011;39550;52.230;5.194;2022-08-06T03:25:45;5.90;;;2.13;;
53646;SDS011;39550;52.230;5.194;2022-08-06T03:28:11;3.53;;;1.90;;
53646;SDS011;39550;52.230;5.194;2022-08-06T03:30:38;5.03;;;2.30;;
53646;SDS011;39550;52.230;5.194;2022-08-06T03:33:12;3.72;;;2.20;;
53646;SDS011;39550;52.230;5.194;2022-08-06T03:35:39;3.90;;;1.95;;
53646;SDS011;39550;52.230;5.194;2022-08-06T03:38:08;4.32;;;2.08;;
53646;SDS011;39550;52.230;5.194;2022-08-06T03:40:35;7.03;;;2.28;;
53646;SDS011;39550;52.230;5.194;2022-08-06T03:43:02;4.15;;;2.10;;
53646;SDS011;39550;52.230;5.194;2022-08-06T03:45:29;5.03;;;2.45;;
53646;SDS011;39550;52.230;5.194;2022-08-06T03:47:58;5.13;;;2.35;;
53646;SDS011;39550;52.230;5.194;2022-08-06T03:50:32;5.18;;;1.90;;
53646;SDS011;39550;52.230;5.194;2022-08-06T03:53:03;5.30;;;2.33;;
53646;SDS011;39550;52.230;5.194;2022-08-06T03:55:39;4.50;;;2.00;;
53646;SDS011;39550;52.230;5.194;2022-08-06T03:58:10;3.78;;;2.22;;
53646;SDS011;39550;52.230;5.194;2022-08-06T04:00:40;3.97;;;2.15;;
53646;SDS011;39550;52.230;5.194;2022-08-06T04:03:15;4.30;;;2.30;;
53646;SDS011;39550;52.230;5.194;2022-08-06T04:05:43;3.63;;;1.95;;
53646;SDS011;39550;52.230;5.194;2022-08-06T04:08:09;3.15;;;1.80;;
53646;SDS011;39550;52.230;5.194;2022-08-06T04:10:37;4.43;;;2.20;;
53646;SDS011;39550;52.230;5.194;2022-08-06T04:13:09;3.55;;;1.80;;
53646;SDS011;39550;52.230;5.194;2022-08-06T04:15:39;4.30;;;2.10;;
53646;SDS011;39550;52.230;5.194;2022-08-06T04:18:09;4.63;;;2.60;;
53646;SDS011;39550;52.230;5.194;2022-08-06T04:20:38;4.55;;;2.20;;
53646;SDS011;39550;52.230;5.194;2022-08-06T04:23:06;3.55;;;1.92;;
53646;SDS011;39550;52.230;5.194;2022-08-06T04:25:34;5.07;;;2.10;;
53646;SDS011;39550;52.230;5.194;2022-08-06T04:28:03;3.63;;;1.83;;
53646;SDS011;39550;52.230;5.194;2022-08-06T04:30:30;3.58;;;1.85;;
53646;SDS011;39550;52.230;5.194;2022-08-06T04:32:57;3.53;;;1.90;;
53646;SDS011;39550;52.230;5.194;2022-08-06T04:35:24;4.63;;;2.30;;
53646;SDS011;39550;52.230;5.194;2022-08-06T04:37:49;4.15;;;2.30;;
53646;SDS011;39550;52.230;5.194;2022-08-06T04:40:16;4.97;;;2.10;;
53646;SDS011;39550;52.230;5.194;2022-08-06T04:42:41;3.70;;;2.40;;
53646;SDS011;39550;52.230;5.194;2022-08-06T04:45:07;5.10;;;2.03;;
53646;SDS011;39550;52.230;5.194;2022-08-06T04:47:34;3.67;;;2.03;;
53646;SDS011;39550;52.230;5.194;2022-08-06T04:50:03;4.03;;;2.00;;
53646;SDS011;39550;52.230;5.194;2022-08-06T04:52:29;3.95;;;2.13;;
53646;SDS011;39550;52.230;5.194;2022-08-06T04:54:56;3.10;;;1.90;;
53646;SDS011;39550;52.230;5.194;2022-08-06T04:57:21;4.25;;;2.00;;
53646;SDS011;39550;52.230;5.194;2022-08-06T04:59:47;4.10;;;2.20;;
53646;SDS011;39550;52.230;5.194;2022-08-06T05:02:12;4.45;;;2.47;;
53646;SDS011;39550;52.230;5.194;2022-08-06T05:04:38;6.25;;;2.22;;
53646;SDS011;39550;52.230;5.194;2022-08-06T05:07:21;3.67;;;2.00;;
53646;SDS011;39550;52.230;5.194;2022-08-06T05:09:49;4.15;;;2.00;;
53646;SDS011;39550;52.230;5.194;2022-08-06T05:12:29;4.03;;;1.90;;
53646;SDS011;39550;52.230;5.194;2022-08-06T05:15:00;5.00;;;2.22;;
53646;SDS011;39550;52.230;5.194;2022-08-06T05:17:42;4.15;;;2.10;;
53646;SDS011;39550;52.230;5.194;2022-08-06T05:20:15;3.97;;;2.33;;
53646;SDS011;39550;52.230;5.194;2022-08-06T05:22:49;4.32;;;2.08;;
53646;SDS011;39550;52.230;5.194;2022-08-06T05:25:17;4.82;;;2.10;;
53646;SDS011;39550;52.230;5.194;2022-08-06T05:27:42;4.38;;;2.20;;
53646;SDS011;39550;52.230;5.194;2022-08-06T05:30:08;3.90;;;1.92;;
53646;SDS011;39550;52.230;5.194;2022-08-06T05:33:07;5.32;;;2.13;;
53646;SDS011;39550;52.230;5.194;2022-08-06T05:35:26;3.85;;;1.90;;
53646;SDS011;39550;52.230;5.194;2022-08-06T05:37:51;3.58;;;2.08;;
53646;SDS011;39550;52.230;5.194;2022-08-06T05:40:17;3.47;;;1.90;;
53646;SDS011;39550;52.230;5.194;2022-08-06T05:42:42;4.50;;;2.25;;
53646;SDS011;39550;52.230;5.194;2022-08-06T05:45:08;3.47;;;1.98;;
53646;SDS011;39550;52.230;5.194;2022-08-06T05:47:36;3.85;;;2.28;;
53646;SDS011;39550;52.230;5.194;2022-08-06T05:50:08;4.53;;;2.15;;
53646;SDS011;39550;52.230;5.194;2022-08-06T05:52:37;4.40;;;1.98;;
53646;SDS011;39550;52.230;5.194;2022-08-06T05:58:23;3.97;;;2.20;;
53646;SDS011;39550;52.230;5.194;2022-08-06T06:00:54;3.60;;;1.90;;
53646;SDS011;39550;52.230;5.194;2022-08-06T06:03:24;4.38;;;1.90;;
53646;SDS011;39550;52.230;5.194;2022-08-06T06:05:50;3.58;;;2.00;;
53646;SDS011;39550;52.230;5.194;2022-08-06T06:08:18;4.85;;;2.60;;
53646;SDS011;39550;52.230;5.194;2022-08-06T06:10:44;3.92;;;2.00;;
53646;SDS011;39550;52.230;5.194;2022-08-06T06:13:11;3.72;;;2.00;;
53646;SDS011;39550;52.230;5.194;2022-08-06T06:15:38;4.18;;;1.95;;
53646;SDS011;39550;52.230;5.194;2022-08-06T06:23:53;3.30;;;1.75;;
53646;SDS011;39550;52.230;5.194;2022-08-06T06:26:33;4.10;;;2.00;;
53646;SDS011;39550;52.230;5.194;2022-08-06T06:29:07;3.63;;;1.83;;
53646;SDS011;39550;52.230;5.194;2022-08-06T06:37:23;4.07;;;2.20;;
53646;SDS011;39550;52.230;5.194;2022-08-06T06:43:43;3.58;;;1.90;;
53646;SDS011;39550;52.230;5.194;2022-08-06T06:46:39;3.85;;;1.90;;
53646;SDS011;39550;52.230;5.194;2022-08-06T06:51:47;3.60;;;1.80;;
53646;SDS011;39550;52.230;5.194;2022-08-06T06:54:30;3.58;;;1.90;;
53646;SDS011;39550;52.230;5.194;2022-08-06T06:57:00;4.30;;;2.05;;
53646;SDS011;39550;52.230;5.194;2022-08-06T07:00:01;3.88;;;2.08;;
53646;SDS011;39550;52.230;5.194;2022-08-06T07:02:21;2.97;;;1.70;;
53646;SDS011;39550;52.230;5.194;2022-08-06T07:04:49;3.13;;;1.85;;
53646;SDS011;39550;52.230;5.194;2022-08-06T07:09:44;4.10;;;2.03;;
53646;SDS011;39550;52.230;5.194;2022-08-06T07:12:11;3.28;;;1.70;;
53646;SDS011;39550;52.230;5.194;2022-08-06T07:14:39;3.85;;;1.90;;
53646;SDS011;39550;52.230;5.194;2022-08-06T07:17:06;3.03;;;1.70;;
53646;SDS011;39550;52.230;5.194;2022-08-06T07:19:33;3.15;;;1.70;;
53646;SDS011;39550;52.230;5.194;2022-08-06T07:21:59;3.10;;;1.80;;
53646;SDS011;39550;52.230;5.194;2022-08-06T07:24:26;4.32;;;1.80;;
53646;SDS011;39550;52.230;5.194;2022-08-06T07:26:55;3.50;;;1.70;;
53646;SDS011;39550;52.230;5.194;2022-08-06T07:29:25;3.30;;;1.70;;
53646;SDS011;39550;52.230;5.194;2022-08-06T07:31:52;4.18;;;2.00;;
53646;SDS011;39550;52.230;5.194;2022-08-06T07:37:25;3.75;;;1.70;;
53646;SDS011;39550;52.230;5.194;2022-08-06T07:39:53;2.97;;;1.70;;
53646;SDS011;39550;52.230;5.194;2022-08-06T07:42:24;3.60;;;1.90;;
53646;SDS011;39550;52.230;5.194;2022-08-06T07:44:52;3.78;;;1.75;;
53646;SDS011;39550;52.230;5.194;2022-08-06T07:49:52;4.10;;;2.10;;
53646;SDS011;39550;52.230;5.194;2022-08-06T07:52:20;2.78;;;1.60;;
53646;SDS011;39550;52.230;5.194;2022-08-06T07:54:50;4.63;;;2.00;;
53646;SDS011;39550;52.230;5.194;2022-08-06T07:57:16;2.70;;;1.70;;
53646;SDS011;39550;52.230;5.194;2022-08-06T07:59:43;4.38;;;1.90;;
53646;SDS011;39550;52.230;5.194;2022-08-06T08:02:09;3.65;;;1.90;;
53646;SDS011;39550;52.230;5.194;2022-08-06T08:04:35;3.50;;;1.50;;
53646;SDS011;39550;52.230;5.194;2022-08-06T08:07:21;3.17;;;1.60;;
53646;SDS011;39550;52.230;5.194;2022-08-06T08:09:47;3.88;;;1.77;;
53646;SDS011;39550;52.230;5.194;2022-08-06T08:12:14;4.55;;;2.00;;
53646;SDS011;39550;52.230;5.194;2022-08-06T08:14:57;3.20;;;1.60;;
53646;SDS011;39550;52.230;5.194;2022-08-06T08:17:23;4.18;;;2.03;;
53646;SDS011;39550;52.230;5.194;2022-08-06T08:19:49;2.58;;;1.63;;
53646;SDS011;39550;52.230;5.194;2022-08-06T08:22:15;5.35;;;1.90;;
53646;SDS011;39550;52.230;5.194;2022-08-06T08:24:44;4.37;;;1.73;;
53646;SDS011;39550;52.230;5.194;2022-08-06T08:27:13;2.88;;;1.70;;
53646;SDS011;39550;52.230;5.194;2022-08-06T08:29:40;4.35;;;1.92;;
53646;SDS011;39550;52.230;5.194;2022-08-06T08:32:07;3.60;;;1.70;;
53646;SDS011;39550;52.230;5.194;2022-08-06T08:34:33;3.70;;;1.80;;
53646;SDS011;39550;52.230;5.194;2022-08-06T08:36:59;2.22;;;1.58;;
53646;SDS011;39550;52.230;5.194;2022-08-06T08:39:24;2.33;;;1.63;;
53646;SDS011;39550;52.230;5.194;2022-08-06T08:45:02;3.08;;;1.60;;
53646;SDS011;39550;52.230;5.194;2022-08-06T08:47:28;3.00;;;1.52;;
53646;SDS011;39550;52.230;5.194;2022-08-06T08:49:55;3.47;;;1.90;;
53646;SDS011;39550;52.230;5.194;2022-08-06T08:52:26;3.38;;;1.70;;
53646;SDS011;39550;52.230;5.194;2022-08-06T08:54:55;3.22;;;1.80;;
53646;SDS011;39550;52.230;5.194;2022-08-06T08:57:23;3.75;;;1.58;;
53646;SDS011;39550;52.230;5.194;2022-08-06T08:59:51;3.15;;;1.50;;
53646;SDS011;39550;52.230;5.194;2022-08-06T09:02:16;3.17;;;1.73;;
53646;SDS011;39550;52.230;5.194;2022-08-06T09:04:42;3.08;;;1.70;;
53646;SDS011;39550;52.230;5.194;2022-08-06T09:07:08;3.65;;;1.60;;
53646;SDS011;39550;52.230;5.194;2022-08-06T09:09:34;3.58;;;1.70;;
53646;SDS011;39550;52.230;5.194;2022-08-06T09:12:03;3.28;;;1.60;;
53646;SDS011;39550;52.230;5.194;2022-08-06T09:14:28;3.08;;;1.60;;
53646;SDS011;39550;52.230;5.194;2022-08-06T09:16:54;2.72;;;1.60;;
53646;SDS011;39550;52.230;5.194;2022-08-06T09:19:19;2.90;;;1.70;;
53646;SDS011;39550;52.230;5.194;2022-08-06T09:21:45;3.03;;;1.63;;
53646;SDS011;39550;52.230;5.194;2022-08-06T09:24:11;3.03;;;1.50;;
53646;SDS011;39550;52.230;5.194;2022-08-06T09:26:36;2.72;;;1.50;;
53646;SDS011;39550;52.230;5.194;2022-08-06T09:29:05;3.55;;;1.67;;
53646;SDS011;39550;52.230;5.194;2022-08-06T09:31:44;2.72;;;1.60;;
53646;SDS011;39550;52.230;5.194;2022-08-06T09:34:09;2.83;;;1.70;;
53646;SDS011;39550;52.230;5.194;2022-08-06T09:36:44;3.08;;;1.52;;
53646;SDS011;39550;52.230;5.194;2022-08-06T09:39:11;3.20;;;1.70;;
53646;SDS011;39550;52.230;5.194;2022-08-06T09:41:46;3.85;;;2.13;;
53646;SDS011;39550;52.230;5.194;2022-08-06T09:44:13;3.10;;;1.73;;
53646;SDS011;39550;52.230;5.194;2022-08-06T09:46:39;3.00;;;1.58;;
53646;SDS011;39550;52.230;5.194;2022-08-06T09:49:05;2.80;;;1.60;;
53646;SDS011;39550;52.230;5.194;2022-08-06T09:51:31;3.55;;;1.88;;
53646;SDS011;39550;52.230;5.194;2022-08-06T09:53:59;4.07;;;1.90;;
53646;SDS011;39550;52.230;5.194;2022-08-06T09:56:27;3.05;;;1.60;;
53646;SDS011;39550;52.230;5.194;2022-08-06T09:58:57;2.70;;;1.50;;
53646;SDS011;39550;52.230;5.194;2022-08-06T10:01:24;3.30;;;1.60;;
53646;SDS011;39550;52.230;5.194;2022-08-06T10:03:50;2.97;;;1.70;;
53646;SDS011;39550;52.230;5.194;2022-08-06T10:06:17;2.85;;;1.60;;
53646;SDS011;39550;52.230;5.194;2022-08-06T10:08:45;3.25;;;1.55;;
53646;SDS011;39550;52.230;5.194;2022-08-06T10:11:12;4.00;;;2.13;;
53646;SDS011;39550;52.230;5.194;2022-08-06T10:13:38;3.10;;;1.73;;
53646;SDS011;39550;52.230;5.194;2022-08-06T10:16:14;2.88;;;1.60;;
53646;SDS011;39550;52.230;5.194;2022-08-06T10:18:45;3.00;;;1.73;;
53646;SDS011;39550;52.230;5.194;2022-08-06T10:23:47;2.78;;;1.73;;
53646;SDS011;39550;52.230;5.194;2022-08-06T10:26:16;2.33;;;1.50;;
53646;SDS011;39550;52.230;5.194;2022-08-06T10:28:44;2.90;;;1.60;;
53646;SDS011;39550;52.230;5.194;2022-08-06T10:31:12;3.80;;;1.70;;
53646;SDS011;39550;52.230;5.194;2022-08-06T10:33:40;4.25;;;1.50;;
53646;SDS011;39550;52.230;5.194;2022-08-06T10:36:10;2.92;;;1.50;;
53646;SDS011;39550;52.230;5.194;2022-08-06T10:38:38;2.73;;;1.50;;
53646;SDS011;39550;52.230;5.194;2022-08-06T10:41:08;3.40;;;1.60;;
53646;SDS011;39550;52.230;5.194;2022-08-06T10:43:35;2.58;;;1.50;;
53646;SDS011;39550;52.230;5.194;2022-08-06T10:46:06;2.95;;;1.77;;
53646;SDS011;39550;52.230;5.194;2022-08-06T10:48:36;3.15;;;1.70;;
53646;SDS011;39550;52.230;5.194;2022-08-06T10:51:04;3.05;;;1.58;;
53646;SDS011;39550;52.230;5.194;2022-08-06T10:53:32;3.33;;;1.80;;
53646;SDS011;39550;52.230;5.194;2022-08-06T10:56:02;3.22;;;1.65;;
53646;SDS011;39550;52.230;5.194;2022-08-06T10:58:29;3.50;;;1.60;;
53646;SDS011;39550;52.230;5.194;2022-08-06T11:00:57;2.25;;;1.50;;
53646;SDS011;39550;52.230;5.194;2022-08-06T11:14:39;4.60;;;1.60;;
53646;SDS011;39550;52.230;5.194;2022-08-06T11:17:06;2.88;;;1.60;;
53646;SDS011;39550;52.230;5.194;2022-08-06T11:19:38;3.40;;;1.65;;
53646;SDS011;39550;52.230;5.194;2022-08-06T11:22:06;3.67;;;1.58;;
53646;SDS011;39550;52.230;5.194;2022-08-06T11:24:32;4.40;;;1.80;;
53646;SDS011;39550;52.230;5.194;2022-08-06T11:26:57;3.40;;;1.67;;
53646;SDS011;39550;52.230;5.194;2022-08-06T11:29:23;3.40;;;1.73;;
53646;SDS011;39550;52.230;5.194;2022-08-06T11:31:48;3.35;;;1.70;;
53646;SDS011;39550;52.230;5.194;2022-08-06T11:34:16;3.35;;;1.52;;
53646;SDS011;39550;52.230;5.194;2022-08-06T11:39:13;3.72;;;1.70;;
53646;SDS011;39550;52.230;5.194;2022-08-06T11:41:58;3.00;;;1.50;;
53646;SDS011;39550;52.230;5.194;2022-08-06T11:44:33;3.72;;;1.67;;
53646;SDS011;39550;52.230;5.194;2022-08-06T11:47:05;2.80;;;1.60;;
53646;SDS011;39550;52.230;5.194;2022-08-06T11:52:55;3.27;;;1.60;;
53646;SDS011;39550;52.230;5.194;2022-08-06T11:54:58;3.50;;;1.60;;
53646;SDS011;39550;52.230;5.194;2022-08-06T11:57:25;3.40;;;1.90;;
53646;SDS011;39550;52.230;5.194;2022-08-06T12:07:39;4.40;;;1.53;;
53646;SDS011;39550;52.230;5.194;2022-08-06T12:10:10;2.80;;;1.42;;
53646;SDS011;39550;52.230;5.194;2022-08-06T12:17:39;3.13;;;1.50;;
53646;SDS011;39550;52.230;5.194;2022-08-06T12:20:05;4.53;;;1.52;;
53646;SDS011;39550;52.230;5.194;2022-08-06T12:22:32;2.67;;;1.58;;
53646;SDS011;39550;52.230;5.194;2022-08-06T12:25:00;3.10;;;1.60;;
53646;SDS011;39550;52.230;5.194;2022-08-06T12:27:30;2.22;;;1.50;;
53646;SDS011;39550;52.230;5.194;2022-08-06T12:30:01;3.03;;;1.63;;
53646;SDS011;39550;52.230;5.194;2022-08-06T12:32:30;2.85;;;1.52;;
53646;SDS011;39550;52.230;5.194;2022-08-06T12:35:00;3.38;;;1.60;;
53646;SDS011;39550;52.230;5.194;2022-08-06T12:37:34;3.33;;;1.48;;
53646;SDS011;39550;52.230;5.194;2022-08-06T12:40:11;2.70;;;1.52;;
53646;SDS011;39550;52.230;5.194;2022-08-06T12:45:25;2.97;;;1.50;;
53646;SDS011;39550;52.230;5.194;2022-08-06T12:47:58;2.63;;;1.60;;
53646;SDS011;39550;52.230;5.194;2022-08-06T12:50:25;2.70;;;1.60;;
53646;SDS011;39550;52.230;5.194;2022-08-06T12:53:01;2.55;;;1.60;;
53646;SDS011;39550;52.230;5.194;2022-08-06T12:55:26;2.63;;;1.60;;
53646;SDS011;39550;52.230;5.194;2022-08-06T12:57:53;2.63;;;1.60;;
53646;SDS011;39550;52.230;5.194;2022-08-06T13:00:19;3.25;;;1.50;;
53646;SDS011;39550;52.230;5.194;2022-08-06T13:02:44;2.53;;;1.50;;
53646;SDS011;39550;52.230;5.194;2022-08-06T13:05:11;2.55;;;1.60;;
53646;SDS011;39550;52.230;5.194;2022-08-06T13:07:38;2.90;;;1.65;;
53646;SDS011;39550;52.230;5.194;2022-08-06T13:10:07;2.83;;;1.58;;
53646;SDS011;39550;52.230;5.194;2022-08-06T13:12:34;2.53;;;1.60;;
53646;SDS011;39550;52.230;5.194;2022-08-06T13:15:00;2.70;;;1.70;;
53646;SDS011;39550;52.230;5.194;2022-08-06T13:17:25;2.95;;;1.60;;
53646;SDS011;39550;52.230;5.194;2022-08-06T13:19:57;3.22;;;1.50;;
53646;SDS011;39550;52.230;5.194;2022-08-06T13:22:25;3.70;;;2.10;;
53646;SDS011;39550;52.230;5.194;2022-08-06T13:28:08;3.42;;;1.50;;
53646;SDS011;39550;52.230;5.194;2022-08-06T13:30:39;4.00;;;2.13;;
53646;SDS011;39550;52.230;5.194;2022-08-06T13:33:14;2.80;;;1.60;;
53646;SDS011;39550;52.230;5.194;2022-08-06T13:35:43;4.13;;;1.80;;
53646;SDS011;39550;52.230;5.194;2022-08-06T13:38:09;2.08;;;1.45;;
53646;SDS011;39550;52.230;5.194;2022-08-06T13:40:39;3.00;;;1.50;;
53646;SDS011;39550;52.230;5.194;2022-08-06T13:43:08;3.17;;;1.60;;
53646;SDS011;39550;52.230;5.194;2022-08-06T13:45:34;2.25;;;1.50;;
53646;SDS011;39550;52.230;5.194;2022-08-06T13:48:11;2.88;;;1.70;;
53646;SDS011;39550;52.230;5.194;2022-08-06T13:50:40;3.13;;;1.70;;
53646;SDS011;39550;52.230;5.194;2022-08-06T13:53:08;2.80;;;1.60;;
53646;SDS011;39550;52.230;5.194;2022-08-06T13:55:35;3.42;;;1.85;;
53646;SDS011;39550;52.230;5.194;2022-08-06T13:58:01;2.58;;;1.63;;
53646;SDS011;39550;52.230;5.194;2022-08-06T14:00:27;2.58;;;1.58;;
53646;SDS011;39550;52.230;5.194;2022-08-06T14:02:53;3.20;;;1.65;;
53646;SDS011;39550;52.230;5.194;2022-08-06T14:05:19;2.35;;;1.73;;
53646;SDS011;39550;52.230;5.194;2022-08-06T14:07:45;4.05;;;1.80;;
53646;SDS011;39550;52.230;5.194;2022-08-06T14:10:11;2.70;;;1.70;;
53646;SDS011;39550;52.230;5.194;2022-08-06T14:12:37;3.30;;;1.70;;
53646;SDS011;39550;52.230;5.194;2022-08-06T14:15:03;2.67;;;1.60;;
53646;SDS011;39550;52.230;5.194;2022-08-06T14:17:29;2.45;;;1.60;;
53646;SDS011;39550;52.230;5.194;2022-08-06T14:19:54;2.58;;;1.60;;
53646;SDS011;39550;52.230;5.194;2022-08-06T14:22:19;3.33;;;1.88;;
53646;SDS011;39550;52.230;5.194;2022-08-06T14:24:45;2.95;;;1.70;;
53646;SDS011;39550;52.230;5.194;2022-08-06T14:27:11;3.08;;;1.70;;
53646;SDS011;39550;52.230;5.194;2022-08-06T14:29:36;3.53;;;1.70;;
53646;SDS011;39550;52.230;5.194;2022-08-06T14:32:02;2.75;;;1.70;;
53646;SDS011;39550;52.230;5.194;2022-08-06T14:34:31;3.42;;;1.85;;
53646;SDS011;39550;52.230;5.194;2022-08-06T14:36:56;2.80;;;1.73;;
53646;SDS011;39550;52.230;5.194;2022-08-06T14:39:23;3.35;;;1.92;;
53646;SDS011;39550;52.230;5.194;2022-08-06T14:41:48;3.33;;;1.90;;
53646;SDS011;39550;52.230;5.194;2022-08-06T14:44:32;2.72;;;1.60;;
53646;SDS011;39550;52.230;5.194;2022-08-06T14:47:16;2.97;;;1.70;;
53646;SDS011;39550;52.230;5.194;2022-08-06T14:49:42;3.35;;;1.80;;
53646;SDS011;39550;52.230;5.194;2022-08-06T14:52:08;3.40;;;1.90;;
53646;SDS011;39550;52.230;5.194;2022-08-06T14:54:33;2.90;;;1.85;;
53646;SDS011;39550;52.230;5.194;2022-08-06T14:57:03;4.25;;;1.90;;
53646;SDS011;39550;52.230;5.194;2022-08-06T14:59:38;2.85;;;1.80;;
53646;SDS011;39550;52.230;5.194;2022-08-06T15:02:04;3.50;;;1.75;;
53646;SDS011;39550;52.230;5.194;2022-08-06T15:04:29;3.40;;;1.90;;
53646;SDS011;39550;52.230;5.194;2022-08-06T15:06:55;3.88;;;2.25;;
53646;SDS011;39550;52.230;5.194;2022-08-06T15:09:20;3.05;;;1.70;;
53646;SDS011;39550;52.230;5.194;2022-08-06T15:11:46;2.60;;;1.60;;
53646;SDS011;39550;52.230;5.194;2022-08-06T15:14:12;2.58;;;1.73;;
53646;SDS011;39550;52.230;5.194;2022-08-06T15:16:37;3.22;;;1.75;;
53646;SDS011;39550;52.230;5.194;2022-08-06T15:19:03;2.78;;;1.77;;
53646;SDS011;39550;52.230;5.194;2022-08-06T15:21:28;3.90;;;2.22;;
53646;SDS011;39550;52.230;5.194;2022-08-06T15:23:54;3.10;;;1.90;;
53646;SDS011;39550;52.230;5.194;2022-08-06T15:26:21;4.40;;;2.25;;
53646;SDS011;39550;52.230;5.194;2022-08-06T15:28:47;3.20;;;1.70;;
53646;SDS011;39550;52.230;5.194;2022-08-06T15:31:13;4.05;;;1.70;;
53646;SDS011;39550;52.230;5.194;2022-08-06T15:33:38;3.33;;;1.70;;
53646;SDS011;39550;52.230;5.194;2022-08-06T15:36:04;3.08;;;1.73;;
53646;SDS011;39550;52.230;5.194;2022-08-06T15:38:29;3.53;;;1.80;;
53646;SDS011;39550;52.230;5.194;2022-08-06T15:40:55;2.95;;;1.80;;
53646;SDS011;39550;52.230;5.194;2022-08-06T15:43:20;3.33;;;1.90;;
53646;SDS011;39550;52.230;5.194;2022-08-06T15:45:48;3.50;;;1.93;;
53646;SDS011;39550;52.230;5.194;2022-08-06T15:48:15;3.17;;;1.80;;
53646;SDS011;39550;52.230;5.194;2022-08-06T15:50:43;4.40;;;1.80;;
53646;SDS011;39550;52.230;5.194;2022-08-06T15:53:09;4.18;;;2.00;;
53646;SDS011;39550;52.230;5.194;2022-08-06T15:55:35;3.38;;;1.98;;
53646;SDS011;39550;52.230;5.194;2022-08-06T15:58:00;3.70;;;1.80;;
53646;SDS011;39550;52.230;5.194;2022-08-06T16:00:26;2.80;;;1.70;;
53646;SDS011;39550;52.230;5.194;2022-08-06T16:02:51;3.80;;;2.10;;
53646;SDS011;39550;52.230;5.194;2022-08-06T16:05:17;3.20;;;1.73;;
53646;SDS011;39550;52.230;5.194;2022-08-06T16:07:44;3.45;;;1.92;;
53646;SDS011;39550;52.230;5.194;2022-08-06T16:10:10;3.20;;;1.85;;
53646;SDS011;39550;52.230;5.194;2022-08-06T16:12:35;3.40;;;2.10;;